Time;durP1;ratioP1;P1;durP2;ratioP2;P2;SDS_P1;SDS_P2;PMS_P1;PMS_P2;Temp;Humidity;BMP_temperature;BMP_pressure;BME280_temperature;BME280_humidity;BME280_pressure;Samples;Min_cycle;Max_cycle;Signal;HPM_P1;HPM_P2
2022/12/07 00:01:28;;;;;;;12.93;8.88;;;3.00;99.90;;;;;;5020945;28;20092;-72
2022/12/07 00:04:00;;;;;;;13.75;8.73;;;3.00;99.90;;;;;;5025210;28;20048;-71
2022/12/07 00:06:27;;;;;;;14.25;9.40;;;3.00;99.90;;;;;;5022492;28;20530;-70
2022/12/07 00:08:55;;;;;;;13.65;9.43;;;3.00;99.90;;;;;;5016936;28;20491;-70
2022/12/07 00:11:23;;;;;;;14.65;9.27;;;2.90;99.90;;;;;;5013046;28;20050;-71
2022/12/07 00:13:53;;;;;;;14.93;9.48;;;2.90;99.90;;;;;;5002266;28;20049;-71
2022/12/07 00:16:24;;;;;;;14.00;9.60;;;2.90;99.90;;;;;;5017763;28;20052;-72
2022/12/07 00:18:52;;;;;;;13.98;9.32;;;2.90;99.90;;;;;;5020554;28;20385;-71
2022/12/07 00:21:29;;;;;;;14.50;9.88;;;2.90;99.90;;;;;;5022661;28;20527;-71
2022/12/07 00:23:57;;;;;;;14.35;8.73;;;2.90;99.90;;;;;;5014618;28;20556;-73
2022/12/07 00:26:27;;;;;;;14.30;10.18;;;2.90;99.90;;;;;;5014910;28;20049;-73
2022/12/07 00:28:59;;;;;;;14.27;10.00;;;2.80;99.90;;;;;;5019835;28;20129;-72
2022/12/07 00:31:29;;;;;;;12.95;9.52;;;2.80;99.90;;;;;;5012313;28;20625;-74
2022/12/07 00:33:58;;;;;;;14.05;9.73;;;2.90;99.90;;;;;;5017276;28;20077;-73
2022/12/07 00:36:26;;;;;;;13.95;9.60;;;2.90;99.90;;;;;;5020075;28;20046;-73
2022/12/07 00:38:57;;;;;;;14.13;8.95;;;2.90;99.90;;;;;;5010161;28;20041;-72
2022/12/07 00:41:26;;;;;;;15.32;9.60;;;2.80;99.90;;;;;;5028126;28;20038;-71
2022/12/07 00:43:54;;;;;;;16.13;10.52;;;2.80;99.90;;;;;;5016077;28;20054;-72
2022/12/07 00:46:22;;;;;;;17.38;9.95;;;2.80;99.90;;;;;;5014432;28;20049;-72
2022/12/07 00:48:51;;;;;;;13.70;9.82;;;2.80;99.90;;;;;;4999890;28;20401;-71
2022/12/07 00:51:20;;;;;;;14.70;9.77;;;2.80;99.90;;;;;;5014131;28;20045;-71
2022/12/07 00:53:48;;;;;;;18.10;11.40;;;2.70;99.90;;;;;;5027894;28;20560;-71
2022/12/07 00:56:25;;;;;;;15.48;10.63;;;2.80;99.90;;;;;;5016738;28;20038;-71
2022/12/07 00:58:57;;;;;;;19.02;11.45;;;2.70;99.90;;;;;;5022594;28;20045;-71
2022/12/07 01:01:27;;;;;;;17.73;10.80;;;2.70;99.90;;;;;;5025664;28;20049;-70
2022/12/07 01:03:54;;;;;;;15.43;10.80;;;2.70;99.90;;;;;;5018299;28;20072;-71
2022/12/07 01:06:25;;;;;;;15.93;10.40;;;2.80;99.90;;;;;;5028290;28;20131;-71
2022/12/07 01:08:53;;;;;;;15.50;10.20;;;2.80;99.90;;;;;;5007926;28;20064;-71
2022/12/07 01:11:24;;;;;;;15.43;10.75;;;2.80;99.90;;;;;;5027018;28;20416;-71
2022/12/07 01:13:53;;;;;;;16.80;11.27;;;2.70;99.90;;;;;;5023708;28;20609;-71
2022/12/07 01:16:23;;;;;;;19.00;11.45;;;2.70;99.90;;;;;;5015683;28;20042;-71
2022/12/07 01:18:54;;;;;;;15.00;10.40;;;2.70;99.90;;;;;;5029155;28;20516;-71
2022/12/07 01:21:24;;;;;;;15.38;11.02;;;2.80;99.90;;;;;;5005414;28;20049;-71
2022/12/07 01:23:52;;;;;;;18.75;11.35;;;2.80;99.90;;;;;;5030937;28;20280;-72
2022/12/07 01:26:22;;;;;;;20.08;11.77;;;2.80;99.90;;;;;;5023919;28;20038;-71
2022/12/07 01:28:50;;;;;;;17.08;11.15;;;2.70;99.90;;;;;;5030821;28;20104;-72
2022/12/07 01:31:19;;;;;;;17.20;11.68;;;2.70;99.90;;;;;;5031527;28;20052;-72
2022/12/07 01:33:50;;;;;;;20.40;12.23;;;2.80;99.90;;;;;;5031151;28;20061;-72
2022/12/07 01:36:20;;;;;;;18.88;11.57;;;2.70;99.90;;;;;;5024253;28;20049;-73
2022/12/07 01:38:53;;;;;;;18.45;12.10;;;2.70;99.90;;;;;;5011675;28;20052;-71
2022/12/07 01:41:21;;;;;;;17.23;11.02;;;2.70;99.90;;;;;;5012170;28;20092;-71
2022/12/07 01:44:16;;;;;;;20.88;12.10;;;2.70;99.90;;;;;;5023486;28;20045;-72
2022/12/07 01:47:00;;;;;;;18.98;12.07;;;2.70;99.90;;;;;;5022282;28;20491;-72
2022/12/07 01:49:36;;;;;;;18.10;12.02;;;2.70;99.90;;;;;;5028164;28;20064;-71
2022/12/07 01:52:23;;;;;;;17.17;11.55;;;2.70;99.90;;;;;;5030317;28;20411;-72
2022/12/07 01:55:12;;;;;;;18.25;11.85;;;2.70;99.90;;;;;;5033505;28;20093;-72
2022/12/07 01:57:44;;;;;;;19.52;12.20;;;2.70;99.90;;;;;;5015995;28;20112;-71
2022/12/07 02:00:12;;;;;;;21.10;12.65;;;2.80;99.90;;;;;;5018769;28;20431;-71
2022/12/07 02:02:44;;;;;;;20.13;11.88;;;2.70;99.90;;;;;;5010248;28;20137;-71
2022/12/07 02:05:11;;;;;;;;;;;2.70;99.90;;;;;;5008918;28;20076;-71
2022/12/07 02:07:39;;;;;;;20.13;11.90;;;2.70;99.90;;;;;;5028734;28;19925;-71
2022/12/07 02:10:20;;;;;;;18.33;11.80;;;2.70;99.90;;;;;;5031498;28;20423;-71
2022/12/07 02:12:58;;;;;;;17.10;11.97;;;2.80;99.90;;;;;;5025071;28;20518;-71
2022/12/07 02:15:34;;;;;;;17.30;11.57;;;2.70;99.90;;;;;;5017898;28;20045;-71
2022/12/07 02:18:13;;;;;;;19.88;11.98;;;2.80;99.90;;;;;;5023772;28;20042;-71
2022/12/07 02:21:15;;;;;;;20.95;12.18;;;2.80;99.90;;;;;;5030011;28;20044;-71
2022/12/07 02:24:10;;;;;;;19.55;11.60;;;2.80;99.90;;;;;;5030064;28;20051;-71
2022/12/07 02:27:15;;;;;;;19.75;12.40;;;2.70;99.90;;;;;;5034445;28;20045;-71
2022/12/07 02:30:01;;;;;;;21.20;12.30;;;2.70;99.90;;;;;;5022478;28;20602;-71
2022/12/07 02:32:34;;;;;;;19.48;12.48;;;2.80;99.90;;;;;;5007123;28;20520;-70
2022/12/07 02:35:11;;;;;;;19.90;12.13;;;2.80;99.90;;;;;;5025722;28;20049;-72
2022/12/07 02:37:49;;;;;;;19.42;12.02;;;2.70;99.90;;;;;;4995048;28;20480;-73
2022/12/07 02:40:38;;;;;;;18.77;12.45;;;2.80;99.90;;;;;;5010412;28;20049;-71
2022/12/07 02:43:18;;;;;;;21.13;13.13;;;2.70;99.90;;;;;;5027776;28;20488;-73
2022/12/07 02:45:47;;;;;;;20.42;12.32;;;2.80;99.90;;;;;;5028536;28;20072;-70
2022/12/07 02:48:17;;;;;;;20.67;12.50;;;2.70;99.90;;;;;;5028289;28;20056;-72
2022/12/07 02:50:48;;;;;;;20.50;13.10;;;2.70;99.90;;;;;;5024060;28;20057;-72
2022/12/07 02:53:42;;;;;;;19.15;11.65;;;2.80;99.90;;;;;;5029222;28;20478;-73
2022/12/07 02:56:24;;;;;;;22.67;13.25;;;2.80;99.90;;;;;;5027203;28;20049;-71
2022/12/07 02:59:06;;;;;;;19.95;13.00;;;2.70;99.90;;;;;;5028374;28;20479;-71
2022/12/07 03:01:55;;;;;;;19.15;12.85;;;2.70;99.90;;;;;;5023292;28;20120;-73
2022/12/07 03:04:43;;;;;;;22.25;13.52;;;2.70;99.90;;;;;;5024104;28;20041;-71
2022/12/07 03:07:18;;;;;;;23.25;13.38;;;2.60;99.90;;;;;;5018249;28;20041;-72
2022/12/07 03:09:59;;;;;;;23.50;14.45;;;2.40;99.90;;;;;;5005269;28;20426;-72
2022/12/07 03:13:01;;;;;;;23.38;13.73;;;2.30;99.90;;;;;;5017786;28;20140;-71
2022/12/07 03:15:35;;;;;;;19.83;11.27;;;2.30;99.90;;;;;;5029188;28;20063;-71
2022/12/07 03:18:05;;;;;;;25.05;14.20;;;2.30;99.90;;;;;;5031205;28;20050;-72
2022/12/07 03:20:35;;;;;;;25.25;14.38;;;2.20;99.90;;;;;;5030639;28;20048;-72
2022/12/07 03:23:06;;;;;;;23.98;14.82;;;2.10;99.90;;;;;;5028787;28;20065;-72
2022/12/07 03:25:35;;;;;;;27.63;14.35;;;2.10;99.90;;;;;;5027691;28;20083;-71
2022/12/07 03:28:06;;;;;;;22.98;13.68;;;2.10;99.90;;;;;;5021829;28;20471;-71
2022/12/07 03:30:57;;;;;;;23.58;14.10;;;2.20;99.90;;;;;;5008757;28;20053;-71
2022/12/07 03:34:01;;;;;;;23.42;13.45;;;2.30;99.90;;;;;;5016737;28;20060;-72
2022/12/07 03:36:49;;;;;;;25.02;14.48;;;2.20;99.90;;;;;;5019604;28;20522;-71
2022/12/07 03:39:22;;;;;;;23.63;13.82;;;2.30;99.90;;;;;;5009889;28;20515;-72
2022/12/07 03:41:50;;;;;;;26.60;14.52;;;2.20;99.90;;;;;;5010010;28;20504;-70
2022/12/07 03:44:18;;;;;;;22.13;13.93;;;2.30;99.90;;;;;;5023211;28;20463;-71
2022/12/07 03:47:03;;;;;;;24.85;14.43;;;2.30;99.90;;;;;;5007393;28;20038;-71
2022/12/07 03:50:12;;;;;;;24.83;13.85;;;2.20;99.90;;;;;;5008905;28;20084;-71
2022/12/07 03:52:53;;;;;;;25.52;15.00;;;2.20;99.90;;;;;;5011509;28;20053;-71
2022/12/07 03:55:30;;;;;;;25.67;14.57;;;2.10;99.90;;;;;;5015301;28;20465;-71
2022/12/07 03:58:08;;;;;;;25.25;14.45;;;2.10;99.90;;;;;;5008740;28;20052;-70
2022/12/07 04:00:36;;;;;;;23.27;14.10;;;2.00;99.90;;;;;;5009039;28;20507;-71
2022/12/07 04:03:03;;;;;;;27.45;15.40;;;1.90;99.90;;;;;;5009330;28;20058;-71
2022/12/07 04:05:30;;;;;;;26.38;14.10;;;1.90;99.90;;;;;;5005902;28;20105;-71
2022/12/07 04:07:58;;;;;;;25.90;14.32;;;1.80;99.90;;;;;;5022239;28;20064;-71
2022/12/07 04:10:25;;;;;;;26.08;14.95;;;1.80;99.90;;;;;;5020664;28;20057;-71
2022/12/07 04:12:52;;;;;;;29.15;16.17;;;1.80;99.90;;;;;;5020660;28;20045;-71
2022/12/07 04:15:20;;;;;;;27.10;15.38;;;1.70;99.90;;;;;;5025257;28;20104;-71
2022/12/07 04:17:47;;;;;;;27.70;15.38;;;1.70;99.90;;;;;;5018443;28;20449;-71
2022/12/07 04:20:14;;;;;;;25.85;14.60;;;1.70;99.90;;;;;;5021587;28;20516;-71
2022/12/07 04:22:42;;;;;;;25.45;14.75;;;1.80;99.90;;;;;;5017537;28;20095;-71
2022/12/07 04:25:09;;;;;;;30.52;15.98;;;1.80;99.90;;;;;;5024046;28;20300;-72
2022/12/07 04:27:36;;;;;;;27.60;16.08;;;1.80;99.90;;;;;;5018147;28;20045;-72
2022/12/07 04:30:04;;;;;;;28.00;16.10;;;1.80;99.90;;;;;;5028619;28;20048;-72
2022/12/07 04:32:32;;;;;;;27.25;15.80;;;1.80;99.90;;;;;;5021272;28;20195;-73
2022/12/07 04:34:59;;;;;;;26.25;15.25;;;1.70;99.90;;;;;;5018934;28;20246;-72
2022/12/07 04:37:26;;;;;;;27.00;15.27;;;1.70;99.90;;;;;;5018665;28;20132;-72
2022/12/07 04:39:53;;;;;;;25.92;15.50;;;1.70;99.90;;;;;;5027600;28;20042;-72
2022/12/07 04:42:21;;;;;;;28.73;15.48;;;1.70;99.90;;;;;;4993461;28;20058;-72
2022/12/07 04:44:48;;;;;;;28.90;16.15;;;1.70;99.90;;;;;;5011225;28;20034;-72
2022/12/07 04:47:15;;;;;;;27.73;16.00;;;1.80;99.90;;;;;;5022548;28;20447;-72
2022/12/07 04:49:43;;;;;;;29.08;16.50;;;1.80;99.90;;;;;;5029341;28;20063;-73
2022/12/07 04:52:10;;;;;;;28.27;16.13;;;1.80;99.90;;;;;;5004118;28;20060;-72
2022/12/07 04:54:37;;;;;;;24.52;14.73;;;1.80;99.90;;;;;;5013678;28;20049;-72
2022/12/07 04:57:05;;;;;;;27.50;15.18;;;1.90;99.90;;;;;;5012507;28;20054;-72
2022/12/07 04:59:32;;;;;;;26.65;15.57;;;1.90;99.90;;;;;;5028195;28;20076;-72
2022/12/07 05:01:59;;;;;;;26.30;14.75;;;1.90;99.90;;;;;;5031203;28;20045;-72
2022/12/07 05:04:27;;;;;;;27.27;15.68;;;1.90;99.90;;;;;;5023419;28;20048;-72
2022/12/07 05:06:54;;;;;;;24.42;15.02;;;2.00;99.90;;;;;;5031343;28;20101;-72
2022/12/07 05:09:21;;;;;;;28.73;16.50;;;1.90;99.90;;;;;;5032512;28;20041;-72
2022/12/07 05:11:48;;;;;;;27.50;15.93;;;1.90;99.90;;;;;;5021636;28;20069;-72
2022/12/07 05:14:18;;;;;;;25.40;15.27;;;1.90;99.90;;;;;;5030907;28;20524;-72
2022/12/07 05:16:48;;;;;;;31.73;17.17;;;1.90;99.90;;;;;;5032385;28;20057;-72
2022/12/07 05:19:17;;;;;;;26.15;15.55;;;2.00;99.90;;;;;;5028827;28;20049;-71
2022/12/07 05:21:44;;;;;;;28.52;14.57;;;1.90;99.90;;;;;;5015767;28;20038;-72
2022/12/07 05:24:14;;;;;;;27.55;16.10;;;1.90;99.90;;;;;;5016047;28;20539;-73
2022/12/07 05:26:42;;;;;;;28.20;15.80;;;2.00;99.90;;;;;;5017731;28;20149;-72
2022/12/07 05:29:15;;;;;;;31.92;16.88;;;2.00;99.90;;;;;;5016081;28;20080;-73
2022/12/07 05:31:43;;;;;;;30.13;17.00;;;2.00;99.90;;;;;;5025604;28;20060;-72
2022/12/07 05:34:11;;;;;;;29.67;16.33;;;2.00;99.90;;;;;;5023693;28;20108;-72
2022/12/07 05:36:38;;;;;;;30.08;17.38;;;2.00;99.90;;;;;;5010688;28;20504;-72
2022/12/07 05:39:07;;;;;;;30.67;17.38;;;2.00;99.90;;;;;;5011842;28;20543;-71
2022/12/07 05:44:20;;;;;;;31.52;15.70;;;2.00;99.90;;;;;;5016817;28;20566;-72
2022/12/07 05:46:47;;;;;;;32.20;18.08;;;2.00;99.90;;;;;;5021296;28;20471;-72
2022/12/07 05:49:14;;;;;;;30.92;17.30;;;2.00;99.90;;;;;;5027422;28;20073;-72
2022/12/07 05:51:42;;;;;;;29.55;16.88;;;2.00;99.90;;;;;;5030999;28;20096;-72
2022/12/07 05:54:09;;;;;;;27.02;16.00;;;2.00;99.90;;;;;;5010275;28;20087;-71
2022/12/07 05:56:37;;;;;;;33.65;17.17;;;2.00;99.90;;;;;;5028529;28;20044;-72
2022/12/07 05:59:22;;;;;;;29.38;16.92;;;2.00;99.90;;;;;;5024193;28;20045;-73
2022/12/07 06:02:11;;;;;;;33.38;17.48;;;2.00;99.90;;;;;;5014802;28;20045;-72
2022/12/07 06:04:42;;;;;;;36.58;17.13;;;1.90;99.90;;;;;;5020955;28;20099;-72
2022/12/07 06:07:10;;;;;;;34.53;18.33;;;1.90;99.90;;;;;;5027171;28;20056;-74
2022/12/07 06:09:37;;;;;;;33.45;17.48;;;1.90;99.90;;;;;;5026745;28;20045;-75
2022/12/07 06:14:52;;;;;;;34.95;18.75;;;1.90;99.90;;;;;;5029794;28;20054;-74
2022/12/07 06:17:19;;;;;;;31.98;17.27;;;1.90;99.90;;;;;;5031380;28;20091;-74
2022/12/07 06:19:46;;;;;;;34.10;18.25;;;1.90;99.90;;;;;;5032026;28;20420;-75
2022/12/07 06:22:15;;;;;;;34.25;18.25;;;1.90;99.90;;;;;;5015241;28;20037;-74
2022/12/07 06:24:43;;;;;;;33.35;18.45;;;1.90;99.90;;;;;;5007640;28;20511;-75
2022/12/07 06:27:11;;;;;;;33.55;17.38;;;2.00;99.90;;;;;;5013160;28;20053;-75
2022/12/07 06:29:38;;;;;;;35.55;17.95;;;2.00;99.90;;;;;;5021048;28;20049;-75
2022/12/07 06:32:05;;;;;;;31.88;16.85;;;2.00;99.90;;;;;;5030272;28;20048;-75
2022/12/07 06:34:33;;;;;;;31.10;16.73;;;2.00;99.90;;;;;;5026212;28;20080;-74
2022/12/07 06:37:01;;;;;;;37.60;19.05;;;2.00;99.90;;;;;;5017540;28;20069;-74
2022/12/07 06:39:29;;;;;;;34.28;18.60;;;2.00;99.90;;;;;;4999863;28;20060;-75
2022/12/07 06:41:57;;;;;;;34.00;17.77;;;2.10;99.90;;;;;;4999105;28;20046;-76
2022/12/07 06:44:25;;;;;;;32.42;18.45;;;2.10;99.90;;;;;;5014611;28;20503;-76
2022/12/07 06:46:52;;;;;;;35.35;17.42;;;2.20;99.90;;;;;;5026559;28;20445;-74
2022/12/07 06:49:38;;;;;;;31.60;17.90;;;2.20;99.90;;;;;;5029488;28;20041;-76
2022/12/07 06:52:05;;;;;;;37.13;18.65;;;2.20;99.90;;;;;;5014152;28;20132;-74
2022/12/07 06:54:33;;;;;;;35.58;19.20;;;2.20;99.90;;;;;;5017279;28;20499;-75
2022/12/07 06:57:00;;;;;;;34.33;17.83;;;2.20;99.90;;;;;;5011946;28;20080;-75
2022/12/07 06:59:27;;;;;;;34.05;17.67;;;2.30;99.90;;;;;;5009012;28;20129;-74
2022/12/07 07:01:55;;;;;;;36.05;18.25;;;2.30;99.90;;;;;;5015831;28;20124;-75
2022/12/07 07:04:22;;;;;;;34.78;18.02;;;2.30;99.90;;;;;;5020843;28;20088;-74
2022/12/07 07:06:49;;;;;;;36.58;19.05;;;2.30;99.90;;;;;;5022876;28;20041;-74
2022/12/07 07:09:24;;;;;;;34.28;16.65;;;2.30;99.90;;;;;;5023979;28;20045;-74
2022/12/07 07:11:51;;;;;;;34.15;17.55;;;2.40;99.90;;;;;;5026599;28;20124;-73
2022/12/07 07:14:19;;;;;;;31.35;17.38;;;2.40;99.90;;;;;;5009583;28;20079;-73
2022/12/07 07:16:46;;;;;;;32.78;18.63;;;2.40;99.90;;;;;;5029827;28;20468;-73
2022/12/07 07:19:14;;;;;;;35.95;18.77;;;2.40;99.90;;;;;;5006993;28;20050;-73
2022/12/07 07:21:41;;;;;;;33.20;17.75;;;2.40;99.90;;;;;;5023293;28;20049;-73
2022/12/07 07:24:08;;;;;;;33.40;17.58;;;2.50;99.90;;;;;;5028156;28;20500;-75
2022/12/07 07:26:35;;;;;;;34.67;18.20;;;2.40;99.90;;;;;;5023187;28;20048;-72
2022/12/07 07:29:03;;;;;;;35.22;18.08;;;2.40;99.90;;;;;;5024875;28;20052;-73
2022/12/07 07:31:31;;;;;;;32.40;17.13;;;2.40;99.90;;;;;;5020186;28;20041;-73
2022/12/07 07:33:58;;;;;;;29.58;16.50;;;2.50;99.90;;;;;;4996561;28;20536;-75
2022/12/07 07:36:25;;;;;;;32.55;16.50;;;2.50;99.90;;;;;;5019620;28;20041;-72
2022/12/07 07:38:52;;;;;;;32.38;17.67;;;2.60;99.90;;;;;;5006805;28;20388;-74
2022/12/07 07:41:19;;;;;;;34.25;16.75;;;2.60;99.90;;;;;;5008925;28;20417;-72
2022/12/07 07:43:47;;;;;;;29.70;16.63;;;2.60;99.90;;;;;;5021778;28;20107;-75
2022/12/07 07:46:14;;;;;;;29.88;17.13;;;2.60;99.90;;;;;;5010111;28;20054;-74
2022/12/07 07:48:41;;;;;;;31.48;17.20;;;2.60;99.90;;;;;;5018849;28;20053;-73
2022/12/07 07:51:09;;;;;;;31.02;17.50;;;2.60;99.90;;;;;;5024341;28;20120;-73
2022/12/07 07:53:36;;;;;;;29.52;16.52;;;2.80;99.90;;;;;;5019954;28;20045;-72
2022/12/07 07:56:03;;;;;;;37.75;17.42;;;2.80;99.90;;;;;;5027592;28;20523;-74
2022/12/07 07:58:31;;;;;;;31.98;16.60;;;2.80;99.90;;;;;;5026759;28;20041;-73
2022/12/07 08:01:04;;;;;;;31.17;16.58;;;2.80;99.90;;;;;;5027977;28;20038;-74
2022/12/07 08:03:31;;;;;;;32.45;17.23;;;2.80;99.90;;;;;;5018972;28;20126;-72
2022/12/07 08:05:59;;;;;;;31.10;16.33;;;2.80;99.90;;;;;;5007079;28;20539;-74
2022/12/07 08:08:26;;;;;;;33.53;16.77;;;2.90;99.90;;;;;;5028763;28;20046;-74
2022/12/07 08:10:53;;;;;;;32.70;17.30;;;2.90;99.90;;;;;;5030016;28;20389;-72
2022/12/07 08:13:21;;;;;;;33.83;16.77;;;3.00;99.90;;;;;;5018893;28;20621;-73
2022/12/07 08:15:56;;;;;;;30.75;16.45;;;3.10;99.90;;;;;;5012687;28;20069;-72
2022/12/07 08:18:24;;;;;;;32.85;17.67;;;3.10;99.90;;;;;;5026420;28;20057;-73
2022/12/07 08:20:51;;;;;;;28.27;16.05;;;3.00;99.90;;;;;;5019246;28;20041;-75
2022/12/07 08:23:18;;;;;;;30.38;15.27;;;3.00;99.90;;;;;;5008013;28;20500;-73
2022/12/07 08:25:49;;;;;;;31.17;16.15;;;3.00;99.90;;;;;;5032215;28;20041;-73
2022/12/07 08:28:16;;;;;;;33.13;17.38;;;3.00;99.90;;;;;;5030148;28;20053;-74
2022/12/07 08:30:43;;;;;;;32.40;16.70;;;3.00;99.90;;;;;;5034416;28;20045;-74
2022/12/07 08:33:11;;;;;;;31.55;15.85;;;3.00;99.90;;;;;;5009550;28;20045;-74
2022/12/07 08:35:38;;;;;;;29.45;16.00;;;3.00;99.90;;;;;;5021295;28;20496;-74
2022/12/07 08:38:05;;;;;;;31.88;16.83;;;3.10;99.90;;;;;;4996754;28;20107;-74
2022/12/07 08:40:33;;;;;;;29.10;15.77;;;3.10;99.90;;;;;;5013161;28;20059;-74
2022/12/07 08:43:00;;;;;;;28.33;15.40;;;3.20;99.90;;;;;;5030128;28;20087;-75
2022/12/07 08:45:27;;;;;;;30.35;16.25;;;3.20;99.90;;;;;;5017914;28;20041;-74
2022/12/07 08:48:06;;;;;;;27.38;14.70;;;3.20;99.90;;;;;;5014441;28;20614;-74
2022/12/07 08:50:34;;;;;;;28.70;15.70;;;3.30;99.90;;;;;;5006329;28;20145;-74
2022/12/07 08:53:04;;;;;;;29.85;15.90;;;3.20;99.90;;;;;;5015255;28;20057;-74
2022/12/07 08:55:33;;;;;;;28.90;15.85;;;3.30;99.90;;;;;;5018090;28;20052;-72
2022/12/07 08:58:02;;;;;;;32.33;16.40;;;3.30;99.90;;;;;;5033019;28;20582;-73
2022/12/07 09:00:29;;;;;;;27.05;14.68;;;3.30;99.90;;;;;;5030456;28;20604;-73
2022/12/07 09:02:56;;;;;;;26.83;14.35;;;3.30;99.90;;;;;;5022342;28;20045;-72
2022/12/07 09:05:24;;;;;;;22.40;13.50;;;3.30;99.90;;;;;;5034768;28;20065;-73
2022/12/07 09:07:57;;;;;;;25.05;13.57;;;3.40;99.90;;;;;;5017361;28;20497;-74
2022/12/07 09:10:24;;;;;;;23.85;12.55;;;3.40;99.90;;;;;;5005050;28;20045;-74
2022/12/07 09:12:53;;;;;;;21.98;12.07;;;3.40;99.90;;;;;;5027480;28;20045;-73
2022/12/07 09:15:20;;;;;;;25.58;13.75;;;3.50;99.90;;;;;;5031029;28;20052;-74
2022/12/07 09:17:48;;;;;;;21.85;12.55;;;3.50;99.90;;;;;;5024732;28;20061;-72
2022/12/07 09:20:15;;;;;;;23.83;13.25;;;3.50;99.90;;;;;;5029053;28;20041;-73
2022/12/07 09:22:42;;;;;;;23.73;12.73;;;3.40;99.90;;;;;;5031089;28;20049;-74
2022/12/07 09:25:10;;;;;;;25.77;11.68;;;3.30;99.90;;;;;;5030708;28;20373;-73
2022/12/07 09:27:37;;;;;;;24.65;12.68;;;3.20;99.90;;;;;;5026904;28;20049;-73
2022/12/07 09:30:05;;;;;;;25.98;12.82;;;3.20;99.90;;;;;;5034163;28;20531;-73
2022/12/07 09:32:36;;;;;;;24.33;13.32;;;3.20;99.90;;;;;;5034235;28;20091;-75
2022/12/07 09:35:04;;;;;;;24.25;13.10;;;3.20;99.90;;;;;;5031600;28;20411;-73
2022/12/07 09:37:34;;;;;;;25.15;12.77;;;3.20;99.90;;;;;;5028542;28;20067;-75
2022/12/07 09:40:03;;;;;;;22.92;12.40;;;3.20;99.90;;;;;;5030559;28;20057;-74
2022/12/07 09:42:36;;;;;;;24.45;12.60;;;3.20;99.90;;;;;;5029533;28;20587;-73
2022/12/07 09:45:05;;;;;;;;;;;3.20;99.90;;;;;;5013016;28;20049;-72
2022/12/07 09:47:36;;;;;;;22.98;12.23;;;3.20;99.90;;;;;;5012182;28;20029;-72
2022/12/07 09:50:16;;;;;;;23.80;11.97;;;3.30;99.90;;;;;;5032879;28;20110;-73
2022/12/07 09:52:45;;;;;;;22.30;12.07;;;3.30;99.90;;;;;;5020833;28;20042;-74
2022/12/07 09:55:15;;;;;;;23.25;12.10;;;3.30;99.90;;;;;;5031095;28;20413;-73
2022/12/07 09:57:43;;;;;;;20.52;11.15;;;3.30;99.90;;;;;;5015174;28;20056;-73
2022/12/07 10:00:14;;;;;;;23.27;12.30;;;3.10;99.90;;;;;;4999379;28;20362;-73
2022/12/07 10:02:46;;;;;;;23.00;11.68;;;3.10;99.90;;;;;;5023685;28;20503;-74
2022/12/07 10:05:18;;;;;;;22.42;11.75;;;3.20;99.90;;;;;;5029742;28;20485;-74
2022/12/07 10:07:50;;;;;;;22.95;11.60;;;3.20;99.90;;;;;;5024427;28;20049;-74
2022/12/07 10:10:24;;;;;;;19.10;11.38;;;3.20;99.90;;;;;;5029867;28;20072;-73
2022/12/07 10:13:02;;;;;;;19.85;11.68;;;3.20;99.90;;;;;;5027721;28;20061;-73
2022/12/07 10:15:46;;;;;;;20.73;11.85;;;3.20;99.90;;;;;;5028560;28;20111;-73
2022/12/07 10:18:27;;;;;;;25.60;12.48;;;3.20;99.90;;;;;;5029092;28;20445;-76
2022/12/07 10:21:20;;;;;;;21.17;11.15;;;3.20;99.90;;;;;;5000550;28;20476;-73
2022/12/07 10:24:04;;;;;;;23.77;12.52;;;3.20;99.90;;;;;;5009588;28;20038;-74
2022/12/07 10:26:46;;;;;;;21.98;11.43;;;3.30;99.90;;;;;;5022998;28;20068;-73
2022/12/07 10:29:36;;;;;;;20.40;11.35;;;3.40;99.90;;;;;;5004938;28;20057;-74
2022/12/07 10:32:25;;;;;;;19.17;11.55;;;3.50;99.90;;;;;;5014706;28;20042;-71
2022/12/07 10:35:21;;;;;;;21.73;11.70;;;3.60;99.90;;;;;;5012710;28;20456;-72
2022/12/07 10:37:49;;;;;;;21.23;11.57;;;3.60;99.90;;;;;;5016816;28;20045;-73
2022/12/07 10:40:36;;;;;;;24.25;12.90;;;3.70;99.90;;;;;;5029714;28;20092;-73
2022/12/07 10:43:11;;;;;;;22.08;12.45;;;3.70;99.90;;;;;;5017136;28;20037;-73
2022/12/07 10:46:10;;;;;;;20.17;11.77;;;3.70;99.90;;;;;;5027057;28;20284;-72
2022/12/07 10:49:13;;;;;;;19.73;11.57;;;3.80;99.90;;;;;;5013271;28;20052;-74
2022/12/07 10:51:55;;;;;;;20.58;11.07;;;3.80;99.90;;;;;;4960259;28;20050;-74
2022/12/07 10:54:28;;;;;;;;;;;3.90;99.90;;;;;;5030093;28;20053;-73
2022/12/07 10:57:11;;;;;;;18.88;10.90;;;3.90;99.90;;;;;;5029987;28;19925;-74
2022/12/07 11:00:02;;;;;;;18.10;11.27;;;3.90;99.90;;;;;;5019241;28;20048;-72
2022/12/07 11:02:50;;;;;;;18.63;10.70;;;3.80;99.90;;;;;;5019246;28;20042;-72
2022/12/07 11:05:49;;;;;;;19.88;11.98;;;3.90;99.90;;;;;;5020068;28;20125;-74
2022/12/07 11:08:36;;;;;;;18.58;11.52;;;3.90;99.90;;;;;;5027271;28;20052;-73
2022/12/07 11:11:25;;;;;;;21.45;11.95;;;3.80;99.90;;;;;;5022034;28;20073;-74
2022/12/07 11:13:58;;;;;;;18.85;11.05;;;3.80;99.90;;;;;;5027763;28;20059;-73
2022/12/07 11:16:50;;;;;;;18.55;10.90;;;3.70;99.90;;;;;;5022366;28;20040;-72
2022/12/07 11:19:51;;;;;;;19.98;12.13;;;3.80;99.90;;;;;;5001114;28;20519;-74
2022/12/07 11:22:23;;;;;;;20.10;11.73;;;3.80;99.90;;;;;;5010907;28;20045;-74
2022/12/07 11:25:31;;;;;;;21.83;12.30;;;3.90;99.90;;;;;;5013270;28;20453;-73
2022/12/07 11:28:04;;;;;;;21.30;12.48;;;3.90;99.90;;;;;;5012265;28;20393;-73
2022/12/07 11:30:46;;;;;;;22.10;11.45;;;3.90;99.90;;;;;;5018951;28;20056;-74
2022/12/07 11:33:17;;;;;;;19.40;12.05;;;3.90;99.90;;;;;;5014679;28;20041;-74
2022/12/07 11:36:22;;;;;;;22.73;12.55;;;4.00;99.90;;;;;;5016834;28;20071;-73
2022/12/07 11:39:00;;;;;;;21.92;11.85;;;3.90;99.90;;;;;;5026357;28;20046;-73
2022/12/07 11:41:35;;;;;;;21.58;12.95;;;3.90;99.90;;;;;;5000706;28;20053;-73
2022/12/07 11:44:37;;;;;;;23.98;13.10;;;3.90;99.90;;;;;;5026353;28;20136;-73
2022/12/07 11:47:16;;;;;;;22.55;12.10;;;3.90;99.90;;;;;;5000244;28;20447;-73
2022/12/07 11:50:05;;;;;;;23.00;12.68;;;3.90;99.90;;;;;;4995399;28;20104;-73
2022/12/07 11:52:39;;;;;;;25.02;13.52;;;3.90;99.90;;;;;;4984388;28;20809;-73
2022/12/07 11:55:21;;;;;;;22.73;13.23;;;3.80;99.90;;;;;;5024325;28;20399;-73
2022/12/07 11:57:56;;;;;;;21.23;12.23;;;3.80;99.90;;;;;;4993681;28;20398;-73
2022/12/07 12:00:23;;;;;;;21.65;12.60;;;3.80;99.90;;;;;;5025344;28;20622;-71
2022/12/07 12:03:15;;;;;;;21.45;12.80;;;3.80;99.90;;;;;;5009615;28;20617;-73
2022/12/07 12:05:43;;;;;;;;;;;3.80;99.90;;;;;;5010220;28;20484;-73
2022/12/07 12:08:19;;;;;;;18.38;11.57;;;3.80;99.90;;;;;;5025389;28;19931;-75
2022/12/07 12:11:18;;;;;;;24.38;12.95;;;3.90;99.90;;;;;;4995777;28;20045;-74
2022/12/07 12:13:51;;;;;;;24.35;13.65;;;3.80;99.90;;;;;;4994353;28;20054;-72
2022/12/07 12:16:41;;;;;;;22.88;13.20;;;3.90;99.90;;;;;;5013923;28;20043;-74
2022/12/07 12:19:35;;;;;;;22.90;11.93;;;3.90;99.90;;;;;;5016724;28;20054;-74
2022/12/07 12:22:34;;;;;;;21.30;12.25;;;3.90;99.90;;;;;;5014946;28;20037;-74
2022/12/07 12:25:15;;;;;;;21.52;12.48;;;3.80;99.90;;;;;;5011793;28;20049;-73
2022/12/07 12:27:47;;;;;;;22.47;13.00;;;3.80;99.90;;;;;;5000589;28;20048;-74
2022/12/07 12:30:28;;;;;;;;;;;3.80;99.90;;;;;;5013079;28;20576;-74
2022/12/07 12:33:04;;;;;;;;;;;3.80;99.90;;;;;;5020182;28;19963;-74
2022/12/07 12:35:33;;;;;;;22.00;12.10;;;3.80;99.90;;;;;;5020241;28;20699;-74
2022/12/07 12:38:30;;;;;;;19.83;11.82;;;3.90;99.90;;;;;;5017914;28;20034;-74
2022/12/07 12:40:58;;;;;;;24.25;13.35;;;3.90;99.90;;;;;;5009881;28;20433;-73
2022/12/07 12:43:52;;;;;;;23.60;13.75;;;3.90;99.90;;;;;;5015527;28;20440;-73
2022/12/07 12:46:33;;;;;;;18.45;12.02;;;3.90;99.90;;;;;;5017709;28;20096;-73
2022/12/07 12:49:16;;;;;;;22.27;13.30;;;3.90;99.90;;;;;;5018031;28;20125;-74
2022/12/07 12:51:50;;;;;;;20.83;12.60;;;3.80;99.90;;;;;;5000738;28;20408;-74
2022/12/07 12:54:18;;;;;;;27.33;12.88;;;3.90;99.90;;;;;;5019675;28;20045;-73
2022/12/07 12:56:51;;;;;;;22.00;12.70;;;3.90;99.90;;;;;;5021064;28;20119;-74
2022/12/07 12:59:22;;;;;;;20.75;12.75;;;3.80;99.90;;;;;;5030149;28;20037;-74
2022/12/07 13:01:53;;;;;;;21.80;12.52;;;3.90;99.90;;;;;;5014538;28;20042;-73
2022/12/07 13:04:43;;;;;;;21.45;13.23;;;4.00;99.90;;;;;;5011789;28;20100;-72
2022/12/07 13:07:13;;;;;;;20.92;12.40;;;3.90;99.90;;;;;;5015182;28;20053;-72
2022/12/07 13:09:45;;;;;;;20.85;12.30;;;3.90;99.90;;;;;;5009810;28;20582;-72
2022/12/07 13:12:15;;;;;;;19.40;12.27;;;3.80;99.90;;;;;;5024484;28;20482;-73
2022/12/07 13:14:57;;;;;;;19.92;12.43;;;3.80;99.90;;;;;;4997915;28;20041;-72
2022/12/07 13:17:31;;;;;;;21.70;13.35;;;3.80;99.90;;;;;;5018733;28;20472;-72